sensor_id;sensor_type;location;lat;lon;timestamp;P1;durP1;ratioP1;P2;durP2;ratioP2
75667;SDS011;64266;48.798;44.756;2023-04-23T00:04:08;15.13;;;8.07;;
75667;SDS011;64266;48.798;44.756;2023-04-23T00:09:13;21.52;;;9.45;;
75667;SDS011;64266;48.798;44.756;2023-04-23T00:14:18;21.15;;;9.18;;
75667;SDS011;64266;48.798;44.756;2023-04-23T00:19:21;20.35;;;8.70;;
75667;SDS011;64266;48.798;44.756;2023-04-23T00:24:23;18.60;;;8.95;;
75667;SDS011;64266;48.798;44.756;2023-04-23T00:29:26;16.67;;;7.93;;
75667;SDS011;64266;48.798;44.756;2023-04-23T00:34:29;17.08;;;8.43;;
75667;SDS011;64266;48.798;44.756;2023-04-23T00:39:32;16.33;;;8.02;;
75667;SDS011;64266;48.798;44.756;2023-04-23T00:44:34;17.17;;;8.18;;
75667;SDS011;64266;48.798;44.756;2023-04-23T00:49:40;14.95;;;8.20;;
75667;SDS011;64266;48.798;44.756;2023-04-23T00:54:43;20.88;;;9.90;;
75667;SDS011;64266;48.798;44.756;2023-04-23T00:59:46;18.05;;;8.82;;
75667;SDS011;64266;48.798;44.756;2023-04-23T01:04:50;20.50;;;8.45;;
75667;SDS011;64266;48.798;44.756;2023-04-23T01:09:52;19.10;;;9.10;;
75667;SDS011;64266;48.798;44.756;2023-04-23T01:14:56;19.35;;;9.27;;
75667;SDS011;64266;48.798;44.756;2023-04-23T01:19:59;15.32;;;8.98;;
75667;SDS011;64266;48.798;44.756;2023-04-23T01:25:04;20.27;;;9.88;;
75667;SDS011;64266;48.798;44.756;2023-04-23T01:30:09;18.48;;;9.70;;
75667;SDS011;64266;48.798;44.756;2023-04-23T01:35:12;14.45;;;8.80;;
75667;SDS011;64266;48.798;44.756;2023-04-23T01:40:16;18.48;;;8.32;;
75667;SDS011;64266;48.798;44.756;2023-04-23T01:45:20;15.25;;;8.35;;
75667;SDS011;64266;48.798;44.756;2023-04-23T01:50:23;17.30;;;9.07;;
75667;SDS011;64266;48.798;44.756;2023-04-23T01:55:27;17.13;;;8.70;;
75667;SDS011;64266;48.798;44.756;2023-04-23T02:00:30;17.08;;;8.90;;
75667;SDS011;64266;48.798;44.756;2023-04-23T02:05:33;13.45;;;7.47;;
75667;SDS011;64266;48.798;44.756;2023-04-23T02:10:37;17.88;;;9.02;;
75667;SDS011;64266;48.798;44.756;2023-04-23T02:15:40;17.60;;;8.63;;
75667;SDS011;64266;48.798;44.756;2023-04-23T02:20:46;15.73;;;7.65;;
75667;SDS011;64266;48.798;44.756;2023-04-23T02:25:48;16.95;;;7.75;;
75667;SDS011;64266;48.798;44.756;2023-04-23T02:30:51;15.30;;;7.72;;
75667;SDS011;64266;48.798;44.756;2023-04-23T02:35:54;18.60;;;8.82;;
75667;SDS011;64266;48.798;44.756;2023-04-23T02:40:57;16.38;;;7.60;;
75667;SDS011;64266;48.798;44.756;2023-04-23T02:45:59;13.63;;;7.03;;
75667;SDS011;64266;48.798;44.756;2023-04-23T02:51:10;16.98;;;8.30;;
75667;SDS011;64266;48.798;44.756;2023-04-23T02:56:15;13.40;;;7.65;;
75667;SDS011;64266;48.798;44.756;2023-04-23T03:01:19;15.32;;;7.53;;
75667;SDS011;64266;48.798;44.756;2023-04-23T03:06:21;12.27;;;7.28;;
75667;SDS011;64266;48.798;44.756;2023-04-23T03:11:25;15.90;;;8.27;;
75667;SDS011;64266;48.798;44.756;2023-04-23T03:16:31;15.60;;;8.02;;
75667;SDS011;64266;48.798;44.756;2023-04-23T03:21:34;15.50;;;8.40;;
75667;SDS011;64266;48.798;44.756;2023-04-23T03:26:37;14.02;;;7.18;;
75667;SDS011;64266;48.798;44.756;2023-04-23T03:31:39;15.02;;;8.00;;
75667;SDS011;64266;48.798;44.756;2023-04-23T03:36:44;22.02;;;13.30;;
75667;SDS011;64266;48.798;44.756;2023-04-23T03:41:50;11.98;;;6.45;;
75667;SDS011;64266;48.798;44.756;2023-04-23T03:46:57;9.80;;;5.40;;
75667;SDS011;64266;48.798;44.756;2023-04-23T03:52:01;19.98;;;6.28;;
75667;SDS011;64266;48.798;44.756;2023-04-23T03:57:06;9.55;;;4.72;;
75667;SDS011;64266;48.798;44.756;2023-04-23T04:02:13;15.00;;;13.25;;
75667;SDS011;64266;48.798;44.756;2023-04-23T04:07:15;7.13;;;4.50;;
75667;SDS011;64266;48.798;44.756;2023-04-23T04:12:20;7.95;;;4.05;;
75667;SDS011;64266;48.798;44.756;2023-04-23T04:17:23;7.18;;;3.60;;
75667;SDS011;64266;48.798;44.756;2023-04-23T04:22:27;14.35;;;6.80;;
75667;SDS011;64266;48.798;44.756;2023-04-23T04:27:31;7.22;;;3.70;;
75667;SDS011;64266;48.798;44.756;2023-04-23T04:32:35;9.38;;;4.35;;
75667;SDS011;64266;48.798;44.756;2023-04-23T04:37:40;10.68;;;3.97;;
75667;SDS011;64266;48.798;44.756;2023-04-23T04:47:49;11.63;;;3.88;;
75667;SDS011;64266;48.798;44.756;2023-04-23T04:52:52;8.95;;;3.58;;
75667;SDS011;64266;48.798;44.756;2023-04-23T04:57:55;6.68;;;3.92;;
75667;SDS011;64266;48.798;44.756;2023-04-23T05:02:57;6.78;;;4.13;;
75667;SDS011;64266;48.798;44.756;2023-04-23T05:08:01;6.25;;;4.50;;
75667;SDS011;64266;48.798;44.756;2023-04-23T05:13:04;9.70;;;4.80;;
75667;SDS011;64266;48.798;44.756;2023-04-23T05:18:08;6.10;;;3.42;;
75667;SDS011;64266;48.798;44.756;2023-04-23T05:23:12;9.30;;;4.30;;
75667;SDS011;64266;48.798;44.756;2023-04-23T05:28:14;11.23;;;4.43;;
75667;SDS011;64266;48.798;44.756;2023-04-23T05:33:17;14.07;;;5.22;;
75667;SDS011;64266;48.798;44.756;2023-04-23T05:38:20;9.07;;;4.68;;
75667;SDS011;64266;48.798;44.756;2023-04-23T05:43:23;7.68;;;4.05;;
75667;SDS011;64266;48.798;44.756;2023-04-23T05:48:26;6.55;;;4.13;;
75667;SDS011;64266;48.798;44.756;2023-04-23T05:53:28;11.93;;;5.20;;
75667;SDS011;64266;48.798;44.756;2023-04-23T05:58:31;10.75;;;4.78;;
75667;SDS011;64266;48.798;44.756;2023-04-23T06:03:34;14.15;;;5.47;;
75667;SDS011;64266;48.798;44.756;2023-04-23T06:08:38;9.00;;;3.97;;
75667;SDS011;64266;48.798;44.756;2023-04-23T06:13:42;11.05;;;4.57;;
75667;SDS011;64266;48.798;44.756;2023-04-23T06:18:44;12.00;;;4.47;;
75667;SDS011;64266;48.798;44.756;2023-04-23T06:23:48;11.50;;;4.72;;
75667;SDS011;64266;48.798;44.756;2023-04-23T06:28:51;7.63;;;4.38;;
75667;SDS011;64266;48.798;44.756;2023-04-23T06:34:02;9.70;;;4.20;;
75667;SDS011;64266;48.798;44.756;2023-04-23T06:39:05;7.53;;;4.50;;
75667;SDS011;64266;48.798;44.756;2023-04-23T06:44:09;9.05;;;4.47;;
75667;SDS011;64266;48.798;44.756;2023-04-23T06:49:25;12.00;;;4.28;;
75667;SDS011;64266;48.798;44.756;2023-04-23T06:54:29;9.55;;;4.40;;
75667;SDS011;64266;48.798;44.756;2023-04-23T06:59:32;14.77;;;4.63;;
75667;SDS011;64266;48.798;44.756;2023-04-23T07:04:36;11.85;;;4.43;;
75667;SDS011;64266;48.798;44.756;2023-04-23T07:09:38;9.88;;;4.55;;
75667;SDS011;64266;48.798;44.756;2023-04-23T07:14:41;12.52;;;5.07;;
75667;SDS011;64266;48.798;44.756;2023-04-23T07:19:45;12.50;;;5.60;;
75667;SDS011;64266;48.798;44.756;2023-04-23T07:24:47;11.25;;;5.03;;
75667;SDS011;64266;48.798;44.756;2023-04-23T07:29:50;15.25;;;5.75;;
75667;SDS011;64266;48.798;44.756;2023-04-23T07:34:53;14.15;;;6.75;;
75667;SDS011;64266;48.798;44.756;2023-04-23T07:39:57;15.07;;;7.18;;
75667;SDS011;64266;48.798;44.756;2023-04-23T07:45:00;11.95;;;6.88;;
75667;SDS011;64266;48.798;44.756;2023-04-23T07:50:05;15.25;;;7.78;;
75667;SDS011;64266;48.798;44.756;2023-04-23T07:55:08;11.52;;;7.15;;
75667;SDS011;64266;48.798;44.756;2023-04-23T08:00:11;10.93;;;6.95;;
75667;SDS011;64266;48.798;44.756;2023-04-23T08:05:15;14.48;;;7.22;;
75667;SDS011;64266;48.798;44.756;2023-04-23T08:10:17;11.52;;;6.88;;
75667;SDS011;64266;48.798;44.756;2023-04-23T08:15:21;11.40;;;6.75;;
75667;SDS011;64266;48.798;44.756;2023-04-23T08:20:24;14.68;;;7.38;;
75667;SDS011;64266;48.798;44.756;2023-04-23T08:25:28;10.38;;;6.82;;
75667;SDS011;64266;48.798;44.756;2023-04-23T08:30:31;13.10;;;8.23;;
75667;SDS011;64266;48.798;44.756;2023-04-23T08:35:34;14.65;;;7.20;;
75667;SDS011;64266;48.798;44.756;2023-04-23T08:40:40;15.70;;;7.70;;
75667;SDS011;64266;48.798;44.756;2023-04-23T08:45:48;16.50;;;7.55;;
75667;SDS011;64266;48.798;44.756;2023-04-23T08:50:50;14.05;;;7.65;;
75667;SDS011;64266;48.798;44.756;2023-04-23T08:55:57;12.48;;;7.70;;
75667;SDS011;64266;48.798;44.756;2023-04-23T09:01:01;12.25;;;7.70;;
75667;SDS011;64266;48.798;44.756;2023-04-23T09:06:04;13.35;;;8.05;;
75667;SDS011;64266;48.798;44.756;2023-04-23T09:11:08;13.38;;;8.30;;
75667;SDS011;64266;48.798;44.756;2023-04-23T09:16:13;13.63;;;8.30;;
75667;SDS011;64266;48.798;44.756;2023-04-23T09:21:16;11.88;;;6.90;;
75667;SDS011;64266;48.798;44.756;2023-04-23T09:26:20;11.65;;;6.38;;
75667;SDS011;64266;48.798;44.756;2023-04-23T09:31:23;14.60;;;6.55;;
75667;SDS011;64266;48.798;44.756;2023-04-23T09:36:26;11.07;;;6.72;;
75667;SDS011;64266;48.798;44.756;2023-04-23T09:41:29;9.88;;;5.40;;
75667;SDS011;64266;48.798;44.756;2023-04-23T09:51:36;10.88;;;5.38;;
75667;SDS011;64266;48.798;44.756;2023-04-23T09:56:41;7.30;;;4.50;;
75667;SDS011;64266;48.798;44.756;2023-04-23T10:01:44;6.75;;;4.20;;
75667;SDS011;64266;48.798;44.756;2023-04-23T10:06:57;6.32;;;3.97;;
75667;SDS011;64266;48.798;44.756;2023-04-23T10:12:21;7.95;;;3.65;;
75667;SDS011;64266;48.798;44.756;2023-04-23T10:17:27;12.38;;;3.70;;
75667;SDS011;64266;48.798;44.756;2023-04-23T10:22:31;12.90;;;4.43;;
75667;SDS011;64266;48.798;44.756;2023-04-23T10:27:39;13.02;;;5.00;;
75667;SDS011;64266;48.798;44.756;2023-04-23T10:32:54;11.35;;;5.18;;
75667;SDS011;64266;48.798;44.756;2023-04-23T10:37:58;9.95;;;4.30;;
75667;SDS011;64266;48.798;44.756;2023-04-23T10:43:01;8.65;;;4.18;;
75667;SDS011;64266;48.798;44.756;2023-04-23T10:48:04;8.23;;;3.90;;
75667;SDS011;64266;48.798;44.756;2023-04-23T10:53:07;10.30;;;3.60;;
75667;SDS011;64266;48.798;44.756;2023-04-23T10:58:21;6.10;;;3.15;;
75667;SDS011;64266;48.798;44.756;2023-04-23T11:03:25;9.55;;;3.58;;
75667;SDS011;64266;48.798;44.756;2023-04-23T11:08:31;7.60;;;3.28;;
75667;SDS011;64266;48.798;44.756;2023-04-23T11:24:00;9.80;;;3.90;;
75667;SDS011;64266;48.798;44.756;2023-04-23T11:29:04;8.18;;;3.60;;
75667;SDS011;64266;48.798;44.756;2023-04-23T11:34:08;9.18;;;3.03;;
75667;SDS011;64266;48.798;44.756;2023-04-23T11:39:13;6.15;;;2.72;;
75667;SDS011;64266;48.798;44.756;2023-04-23T11:44:16;5.90;;;3.05;;
75667;SDS011;64266;48.798;44.756;2023-04-23T11:49:21;7.43;;;3.05;;
75667;SDS011;64266;48.798;44.756;2023-04-23T11:54:26;7.03;;;2.75;;
75667;SDS011;64266;48.798;44.756;2023-04-23T11:59:31;6.53;;;2.83;;
75667;SDS011;64266;48.798;44.756;2023-04-23T12:04:34;6.78;;;2.80;;
75667;SDS011;64266;48.798;44.756;2023-04-23T12:09:38;6.85;;;3.00;;
75667;SDS011;64266;48.798;44.756;2023-04-23T12:14:42;6.15;;;3.22;;
75667;SDS011;64266;48.798;44.756;2023-04-23T12:19:44;6.60;;;2.60;;
75667;SDS011;64266;48.798;44.756;2023-04-23T12:24:48;6.95;;;3.15;;
75667;SDS011;64266;48.798;44.756;2023-04-23T12:29:59;5.70;;;3.55;;
75667;SDS011;64266;48.798;44.756;2023-04-23T12:35:04;7.55;;;3.58;;
75667;SDS011;64266;48.798;44.756;2023-04-23T12:40:07;5.70;;;3.58;;
75667;SDS011;64266;48.798;44.756;2023-04-23T12:45:12;7.43;;;3.55;;
75667;SDS011;64266;48.798;44.756;2023-04-23T12:50:14;6.32;;;3.33;;
75667;SDS011;64266;48.798;44.756;2023-04-23T12:55:16;6.57;;;2.92;;
75667;SDS011;64266;48.798;44.756;2023-04-23T13:00:19;5.80;;;3.03;;
75667;SDS011;64266;48.798;44.756;2023-04-23T13:05:22;5.53;;;2.72;;
75667;SDS011;64266;48.798;44.756;2023-04-23T13:10:25;7.97;;;3.17;;
75667;SDS011;64266;48.798;44.756;2023-04-23T13:15:29;5.15;;;2.75;;
75667;SDS011;64266;48.798;44.756;2023-04-23T13:20:32;7.53;;;3.28;;
75667;SDS011;64266;48.798;44.756;2023-04-23T13:25:34;6.30;;;2.95;;
75667;SDS011;64266;48.798;44.756;2023-04-23T13:30:38;7.53;;;3.40;;
75667;SDS011;64266;48.798;44.756;2023-04-23T13:35:41;6.75;;;3.35;;
75667;SDS011;64266;48.798;44.756;2023-04-23T13:40:44;7.82;;;4.10;;
75667;SDS011;64266;48.798;44.756;2023-04-23T13:45:47;9.60;;;4.18;;
75667;SDS011;64266;48.798;44.756;2023-04-23T13:50:50;13.77;;;3.97;;
75667;SDS011;64266;48.798;44.756;2023-04-23T13:55:54;9.70;;;4.13;;
75667;SDS011;64266;48.798;44.756;2023-04-23T14:00:57;14.32;;;4.25;;
75667;SDS011;64266;48.798;44.756;2023-04-23T14:06:00;11.07;;;3.63;;
75667;SDS011;64266;48.798;44.756;2023-04-23T14:11:03;7.65;;;3.30;;
75667;SDS011;64266;48.798;44.756;2023-04-23T14:16:06;7.63;;;3.40;;
75667;SDS011;64266;48.798;44.756;2023-04-23T14:21:09;8.60;;;3.75;;
75667;SDS011;64266;48.798;44.756;2023-04-23T14:26:21;7.28;;;3.25;;
75667;SDS011;64266;48.798;44.756;2023-04-23T14:31:48;11.63;;;3.97;;
75667;SDS011;64266;48.798;44.756;2023-04-23T14:36:51;12.02;;;4.55;;
75667;SDS011;64266;48.798;44.756;2023-04-23T14:41:54;13.27;;;4.25;;
75667;SDS011;64266;48.798;44.756;2023-04-23T14:46:57;10.18;;;4.05;;
75667;SDS011;64266;48.798;44.756;2023-04-23T14:52:00;7.95;;;3.63;;
75667;SDS011;64266;48.798;44.756;2023-04-23T14:57:04;6.50;;;3.40;;
75667;SDS011;64266;48.798;44.756;2023-04-23T15:02:07;7.88;;;3.80;;
75667;SDS011;64266;48.798;44.756;2023-04-23T15:07:10;10.57;;;3.63;;
75667;SDS011;64266;48.798;44.756;2023-04-23T15:13:00;12.63;;;3.88;;
75667;SDS011;64266;48.798;44.756;2023-04-23T15:17:40;8.27;;;4.07;;
75667;SDS011;64266;48.798;44.756;2023-04-23T15:22:43;10.77;;;4.15;;
75667;SDS011;64266;48.798;44.756;2023-04-23T15:27:48;14.38;;;4.18;;
75667;SDS011;64266;48.798;44.756;2023-04-23T15:32:57;11.65;;;4.50;;
75667;SDS011;64266;48.798;44.756;2023-04-23T15:38:01;11.68;;;4.25;;
75667;SDS011;64266;48.798;44.756;2023-04-23T15:43:04;13.70;;;4.88;;
75667;SDS011;64266;48.798;44.756;2023-04-23T15:48:07;12.25;;;4.78;;
75667;SDS011;64266;48.798;44.756;2023-04-23T15:53:10;15.45;;;5.57;;
75667;SDS011;64266;48.798;44.756;2023-04-23T15:58:13;18.08;;;5.10;;
75667;SDS011;64266;48.798;44.756;2023-04-23T16:03:16;15.52;;;5.90;;
75667;SDS011;64266;48.798;44.756;2023-04-23T16:08:19;21.67;;;7.32;;
75667;SDS011;64266;48.798;44.756;2023-04-23T16:13:24;22.38;;;7.32;;
75667;SDS011;64266;48.798;44.756;2023-04-23T16:18:28;26.77;;;7.97;;
75667;SDS011;64266;48.798;44.756;2023-04-23T16:23:30;34.20;;;9.40;;
75667;SDS011;64266;48.798;44.756;2023-04-23T16:28:33;25.00;;;7.20;;
75667;SDS011;64266;48.798;44.756;2023-04-23T16:33:36;24.60;;;6.50;;
75667;SDS011;64266;48.798;44.756;2023-04-23T16:38:38;22.42;;;6.78;;
75667;SDS011;64266;48.798;44.756;2023-04-23T16:43:41;26.25;;;7.22;;
75667;SDS011;64266;48.798;44.756;2023-04-23T16:48:44;24.40;;;5.93;;
75667;SDS011;64266;48.798;44.756;2023-04-23T16:53:47;36.80;;;7.72;;
75667;SDS011;64266;48.798;44.756;2023-04-23T16:58:50;38.00;;;7.10;;
75667;SDS011;64266;48.798;44.756;2023-04-23T17:03:52;30.80;;;6.45;;
75667;SDS011;64266;48.798;44.756;2023-04-23T17:08:56;33.95;;;6.85;;
75667;SDS011;64266;48.798;44.756;2023-04-23T17:14:00;39.88;;;10.30;;
75667;SDS011;64266;48.798;44.756;2023-04-23T17:19:02;25.15;;;7.53;;
75667;SDS011;64266;48.798;44.756;2023-04-23T17:24:05;30.63;;;6.75;;
75667;SDS011;64266;48.798;44.756;2023-04-23T17:29:08;31.83;;;7.65;;
75667;SDS011;64266;48.798;44.756;2023-04-23T17:34:11;21.90;;;6.13;;
75667;SDS011;64266;48.798;44.756;2023-04-23T17:39:13;23.60;;;7.53;;
75667;SDS011;64266;48.798;44.756;2023-04-23T17:44:20;30.80;;;6.90;;
75667;SDS011;64266;48.798;44.756;2023-04-23T17:49:23;43.40;;;10.30;;
75667;SDS011;64266;48.798;44.756;2023-04-23T17:54:25;39.95;;;8.43;;
75667;SDS011;64266;48.798;44.756;2023-04-23T17:59:28;31.25;;;6.95;;
75667;SDS011;64266;48.798;44.756;2023-04-23T18:04:31;40.15;;;9.95;;
75667;SDS011;64266;48.798;44.756;2023-04-23T18:09:35;36.85;;;7.75;;
75667;SDS011;64266;48.798;44.756;2023-04-23T18:14:37;34.78;;;8.27;;
75667;SDS011;64266;48.798;44.756;2023-04-23T18:19:40;37.38;;;10.10;;
75667;SDS011;64266;48.798;44.756;2023-04-23T18:24:43;41.05;;;10.43;;
75667;SDS011;64266;48.798;44.756;2023-04-23T18:29:46;65.25;;;12.35;;
75667;SDS011;64266;48.798;44.756;2023-04-23T18:34:49;51.92;;;9.68;;
75667;SDS011;64266;48.798;44.756;2023-04-23T18:39:53;34.72;;;8.80;;
75667;SDS011;64266;48.798;44.756;2023-04-23T18:44:56;37.92;;;9.18;;
75667;SDS011;64266;48.798;44.756;2023-04-23T18:50:02;43.58;;;9.13;;
75667;SDS011;64266;48.798;44.756;2023-04-23T18:55:10;43.88;;;9.60;;
75667;SDS011;64266;48.798;44.756;2023-04-23T19:00:13;26.83;;;8.15;;
75667;SDS011;64266;48.798;44.756;2023-04-23T19:05:16;38.00;;;9.20;;
75667;SDS011;64266;48.798;44.756;2023-04-23T19:10:21;55.38;;;10.63;;
75667;SDS011;64266;48.798;44.756;2023-04-23T19:15:24;52.72;;;11.68;;
75667;SDS011;64266;48.798;44.756;2023-04-23T19:20:27;39.83;;;11.65;;
75667;SDS011;64266;48.798;44.756;2023-04-23T19:25:29;38.42;;;10.80;;
75667;SDS011;64266;48.798;44.756;2023-04-23T19:30:32;54.70;;;12.10;;
75667;SDS011;64266;48.798;44.756;2023-04-23T19:35:34;49.28;;;10.02;;
75667;SDS011;64266;48.798;44.756;2023-04-23T19:40:41;45.13;;;13.20;;
75667;SDS011;64266;48.798;44.756;2023-04-23T19:45:43;39.13;;;10.60;;
75667;SDS011;64266;48.798;44.756;2023-04-23T19:50:47;38.38;;;10.18;;
75667;SDS011;64266;48.798;44.756;2023-04-23T19:55:49;36.00;;;9.77;;
75667;SDS011;64266;48.798;44.756;2023-04-23T20:00:52;32.58;;;11.95;;
75667;SDS011;64266;48.798;44.756;2023-04-23T20:05:54;41.83;;;12.75;;
75667;SDS011;64266;48.798;44.756;2023-04-23T20:10:59;51.20;;;12.50;;
75667;SDS011;64266;48.798;44.756;2023-04-23T20:16:01;51.55;;;11.90;;
75667;SDS011;64266;48.798;44.756;2023-04-23T20:21:05;46.72;;;11.45;;
75667;SDS011;64266;48.798;44.756;2023-04-23T20:26:07;49.10;;;12.55;;
75667;SDS011;64266;48.798;44.756;2023-04-23T20:31:09;54.00;;;11.45;;
75667;SDS011;64266;48.798;44.756;2023-04-23T20:36:12;58.95;;;13.77;;
75667;SDS011;64266;48.798;44.756;2023-04-23T20:41:17;42.90;;;12.00;;
75667;SDS011;64266;48.798;44.756;2023-04-23T20:46:20;39.25;;;11.90;;
75667;SDS011;64266;48.798;44.756;2023-04-23T20:51:24;46.92;;;11.52;;
75667;SDS011;64266;48.798;44.756;2023-04-23T20:56:28;45.78;;;12.52;;
75667;SDS011;64266;48.798;44.756;2023-04-23T21:01:31;51.55;;;12.68;;
75667;SDS011;64266;48.798;44.756;2023-04-23T21:06:33;46.55;;;14.45;;
75667;SDS011;64266;48.798;44.756;2023-04-23T21:11:36;47.35;;;14.30;;
75667;SDS011;64266;48.798;44.756;2023-04-23T21:16:39;47.33;;;14.20;;
75667;SDS011;64266;48.798;44.756;2023-04-23T21:21:42;51.20;;;14.48;;
75667;SDS011;64266;48.798;44.756;2023-04-23T21:26:44;41.85;;;15.07;;
75667;SDS011;64266;48.798;44.756;2023-04-23T21:31:49;44.47;;;15.90;;
75667;SDS011;64266;48.798;44.756;2023-04-23T21:36:53;36.28;;;14.05;;
75667;SDS011;64266;48.798;44.756;2023-04-23T21:41:56;40.85;;;15.18;;
75667;SDS011;64266;48.798;44.756;2023-04-23T21:46:58;48.08;;;14.85;;
75667;SDS011;64266;48.798;44.756;2023-04-23T21:52:01;39.92;;;15.20;;
75667;SDS011;64266;48.798;44.756;2023-04-23T21:57:03;42.90;;;15.20;;
75667;SDS011;64266;48.798;44.756;2023-04-23T22:02:07;52.63;;;16.30;;
75667;SDS011;64266;48.798;44.756;2023-04-23T22:07:10;56.95;;;22.58;;
75667;SDS011;64266;48.798;44.756;2023-04-23T22:12:14;68.13;;;29.45;;
75667;SDS011;64266;48.798;44.756;2023-04-23T22:17:17;73.45;;;32.50;;
75667;SDS011;64266;48.798;44.756;2023-04-23T22:22:22;78.57;;;35.40;;
75667;SDS011;64266;48.798;44.756;2023-04-23T22:27:24;83.65;;;39.17;;
75667;SDS011;64266;48.798;44.756;2023-04-23T22:32:27;86.18;;;39.42;;
75667;SDS011;64266;48.798;44.756;2023-04-23T22:37:31;81.30;;;39.58;;
75667;SDS011;64266;48.798;44.756;2023-04-23T22:42:34;85.00;;;38.85;;
75667;SDS011;64266;48.798;44.756;2023-04-23T22:47:36;79.80;;;39.20;;
75667;SDS011;64266;48.798;44.756;2023-04-23T22:52:40;77.47;;;37.22;;
75667;SDS011;64266;48.798;44.756;2023-04-23T22:57:43;74.53;;;38.20;;
75667;SDS011;64266;48.798;44.756;2023-04-23T23:02:45;82.15;;;39.30;;
75667;SDS011;64266;48.798;44.756;2023-04-23T23:07:48;78.28;;;37.90;;
75667;SDS011;64266;48.798;44.756;2023-04-23T23:12:51;73.32;;;34.75;;
75667;SDS011;64266;48.798;44.756;2023-04-23T23:17:54;73.57;;;36.38;;
75667;SDS011;64266;48.798;44.756;2023-04-23T23:22:56;71.32;;;35.63;;
75667;SDS011;64266;48.798;44.756;2023-04-23T23:27:58;72.28;;;34.90;;
75667;SDS011;64266;48.798;44.756;2023-04-23T23:33:01;63.78;;;33.50;;
75667;SDS011;64266;48.798;44.756;2023-04-23T23:38:03;70.57;;;33.92;;
75667;SDS011;64266;48.798;44.756;2023-04-23T23:43:06;71.22;;;34.88;;
75667;SDS011;64266;48.798;44.756;2023-04-23T23:48:09;67.13;;;33.97;;
75667;SDS011;64266;48.798;44.756;2023-04-23T23:53:13;69.20;;;36.35;;
75667;SDS011;64266;48.798;44.756;2023-04-23T23:58:15;66.15;;;34.03;;
